Isles of Scilly, United Kingdom
Current Conditions -  °F | °C
As of 10:50 AM on Thursday 23 Oct 2014 (Local Time) from EGHE Reporting Station
Broken Clouds Broken Clouds  
Wind Chill: 61°   Ceiling: 3500
Heat Index: 61°   Visibility: 6mi
Dew Point: 59°   Wind: 15mph
Humidity: 94%   Direction: 220°SW
Pressure: 30.12"   Gusts: NA
Location:  49.91°N, 6.31°W
Report Text: EGHE 230950Z 22013KT 9999 FEW004 SCT012 BKN035 16/15 Q1020
Loading
Personal Weather Stations






























Interactive Weather Map
Tropical Storm Tracking
New forecast layout! Learn more

10-Day Weather Forecast

Advertisements
Track Severe Weather on mobile